Flight Track Log - Related Links

Times and Time Zones

All times are in EST time to prevent confusion due to time zone crossing. See the EJA922 flight status page for this flight to view local times or setup timezone preferences in your user account.

Time Position Orientation Groundspeed Altitude Reporting Facility
EST Latitude Longitude Course Direction KTS MPH feet Rate Location/Type
Mon 02:59:36 PM 35.2178 -101.6272 121° Southeast 243 280 8,400  Level Albuquerque Center
Mon 03:00:38 PM 35.1667 -101.5472 128° Southeast 277 319 11,100 2,952 Climbing Albuquerque Center
Mon 03:01:40 PM 35.1017 -101.4481 129° Southeast 361 415 14,500 3,145 Climbing Albuquerque Center
Mon 03:02:42 PM 35.0372 -101.3497 129° Southeast 368 423 17,600 3,024 Climbing Albuquerque Center
Mon 03:03:43 PM 34.9553 -101.2247 129° Southeast 387 445 20,700 2,634 Climbing Albuquerque Center
Mon 03:04:00 PM 34.8910 -101.1653 121° Southeast  Level FlightAware Approximate
Mon 03:04:45 PM 34.8822 -101.1139 129° Southeast 411 473 23,000  Level Albuquerque Center
Mon 03:05:47 PM 34.8067 -101.0006 129° Southeast 426 490 25,900 2,419 Climbing Albuquerque Center
Mon 03:06:49 PM 34.7303 -100.8844 129° Southeast 435 501 28,000 2,049 Climbing Albuquerque Center
Mon 03:07:50 PM 34.6494 -100.7625 129° Southeast 454 522 30,100 2,000 Climbing Albuquerque Center
Mon 03:08:52 PM 34.5675 -100.6417 129° Southeast 462 532 32,100 2,081 Climbing Albuquerque Center
Mon 03:09:54 PM 34.4692 -100.4933 129° Southeast 469 540 34,400 1,403 Climbing Albuquerque Center
Mon 03:10:56 PM 34.3808 -100.3703 131° Southeast 480 552 35,000 293 Climbing Albuquerque Center
Mon 03:11:57 PM 34.2894 -100.2444 131° Southeast 493 567 35,000  Level Albuquerque Center
Mon 03:12:57 PM 34.2111 -100.1394 132° Southeast 496 571 35,000  Level Fort Worth Center
Mon 03:13:59 PM 34.1047 -99.9903 131° Southeast 489 563 35,000  Level Fort Worth Center
Mon 03:15:01 PM 34.0133 -99.8692 132° Southeast 487 560 35,000  Level Fort Worth Center
Mon 03:16:03 PM 33.9242 -99.7456 131° Southeast 487 560 35,000  Level Fort Worth Center
Mon 03:17:04 PM 33.8358 -99.6236 131° Southeast 483 556 35,000  Level Fort Worth Center
Mon 03:18:06 PM 33.7458 -99.5025 132° Southeast 483 556 35,000  Level Fort Worth Center
Mon 03:19:08 PM 33.6569 -99.3825 132° Southeast 481 554 35,000  Level Fort Worth Center
Mon 03:20:10 PM 33.5689 -99.2628 131° Southeast 476 548 35,000  Level Fort Worth Center
Mon 03:21:11 PM 33.4797 -99.1419 131° Southeast 480 552 35,000  Level Fort Worth Center
Mon 03:22:13 PM 33.3719 -98.9994 132° Southeast 479 551 35,000  Level Fort Worth Center
Mon 03:23:15 PM 33.2828 -98.8789 131° Southeast 482 555 35,000  Level Fort Worth Center
Mon 03:24:17 PM 33.1925 -98.7583 132° Southeast 482 555 35,000  Level Fort Worth Center
Mon 03:25:18 PM 33.1019 -98.6383 132° Southeast 483 556 35,000  Level Fort Worth Center
Mon 03:26:20 PM 33.0106 -98.5203 133° Southeast 483 556 35,000  Level Fort Worth Center
Mon 03:27:22 PM 32.9103 -98.3881 132° Southeast 484 557 35,000  Level Fort Worth Center
Mon 03:28:23 PM 32.8206 -98.2703 132° Southeast 482 555 35,000  Level Fort Worth Center
Mon 03:29:25 PM 32.7306 -98.1525 132° Southeast 485 558 35,000  Level Fort Worth Center
Mon 03:30:27 PM 32.6411 -98.0339 132° Southeast 483 556 35,000  Level Fort Worth Center
Mon 03:31:28 PM 32.5489 -97.9156 133° Southeast 490 564 35,000  Level Fort Worth Center
Mon 03:32:30 PM 32.4589 -97.7964 132° Southeast 490 564 35,000  Level Fort Worth Center
Mon 03:33:32 PM 32.3475 -97.6536 133° Southeast 494 568 35,000  Level Fort Worth Center
Mon 03:34:33 PM 32.2558 -97.5347 132° Southeast 494 568 35,000  Level Fort Worth Center
Mon 03:35:35 PM 32.1625 -97.4150 133° Southeast 497 572 35,000  Level Fort Worth Center
Mon 03:36:37 PM 32.0686 -97.2936 132° Southeast 502 578 35,000  Level Fort Worth Center
Mon 03:37:38 PM 31.9750 -97.1758 133° Southeast 498 573 35,000  Level Fort Worth Center
Mon 03:38:40 PM 31.8689 -97.0428 133° Southeast 488 562 35,000  Level Fort Worth Center
Mon 03:39:41 PM 31.7756 -96.9236 133° Southeast 487 560 35,000  Level Fort Worth Center
Mon 03:40:43 PM 31.6683 -96.8361 145° Southeast 459 528 35,000  Level Fort Worth Center
Mon 03:41:45 PM 31.5500 -96.8119 170° South 429 494 35,000  Level Fort Worth Center
Mon 03:42:46 PM 31.4311 -96.7944 173° South 425 489 35,000  Level Fort Worth Center
Mon 03:43:48 PM 31.3111 -96.7747 172° South 428 493 35,000 -1,024 Level Fort Worth Center
Mon 03:44:49 PM 31.1925 -96.7550 172° South 424 488 32,900 -2,049 Descending Fort Worth Center
Mon 03:45:51 PM 31.0803 -96.7383 173° South 405 466 30,800 -1,984 Descending Fort Worth Center
Mon 03:46:53 PM 30.9728 -96.7211 172° South 389 448 28,800 -2,000 Descending Fort Worth Center
Mon 03:47:54 PM 30.8661 -96.7033 172° South 382 440 26,700 -2,098 Descending Fort Worth Center
Mon 03:48:56 PM 30.7542 -96.6875 173° South 395 455 24,500 -2,129 Descending Fort Worth Center
Mon 03:49:58 PM 30.6406 -96.6678 172° South 405 466 22,300 -2,195 Descending Fort Worth Center
Mon 03:50:59 PM 30.5375 -96.6064 153° Southeast 425 489 20,000 -2,146 Descending Fort Worth Center
Mon 03:52:01 PM 30.4586 -96.5125 134° Southeast 408 470 17,900 -2,146 Descending Fort Worth Center
Mon 03:53:02 PM 30.3722 -96.4061 133° Southeast 390 449 15,600 -2,146 Descending Fort Worth Center
Mon 03:54:04 PM 30.2992 -96.3192 134° Southeast 379 436 13,500 -1,984 Descending Fort Worth Center
Mon 03:55:06 PM 30.2275 -96.2339 134° Southeast 370 426 11,500 -1,171 Descending Fort Worth Center
Mon 03:56:07 PM 30.1469 -96.1744 147° Southeast 342 394 11,100 -330 Descending Fort Worth Center
Mon 03:56:37 PM 30.1139 -96.1567 155° Southeast 333 383 11,000 -75 Descending Houston Center
Mon 03:57:27 PM 30.0322 -96.1142 156° South 308 354 11,000 -100 Level Houston Center
Mon 03:57:37 PM 30.0322 -96.1125 90° East 325 374 10,900  Descending Houston Center
Mon 03:58:28 PM 29.9550 -96.0725 156° South 308 354 11,000  Climbing Houston Center
Mon 03:58:39 PM 29.9542 -96.0722 164° South 310 357 10,900  Descending Houston Center
Mon 03:59:29 PM 29.8783 -96.0331 156° South 301 346 11,000 97 Climbing Houston Center
Mon 03:59:41 PM 29.8778 -96.0311 108° East 304 350 11,000  Level Houston Center
Mon 04:00:29 PM 29.8239 -95.9644 133° Southeast 286 329 11,000  Level Houston Center
Mon 04:00:43 PM 29.8200 -95.9583 126° Southeast 293 337 11,000  Level Houston Center
Mon 04:01:45 PM 29.7700 -95.8894 130° Southeast 282 325 11,000 -244 Level Houston Center
Mon 04:02:46 PM 29.7064 -95.8014 130° Southeast 297 342 10,500 -956 Descending Houston Center
Mon 04:03:38 PM 29.6592 -95.7381 131° Southeast 294 338 9,200 -1,548 Descending Houston Center
Mon 04:03:48 PM 29.6542 -95.7292 123° Southeast 295 339 8,900 -1,180 Descending Houston Center
Mon 04:04:39 PM 29.6139 -95.6761 131° Southeast 224 258 8,000 -968 Descending Houston Center
Mon 04:04:50 PM 29.6094 -95.6683 123° Southeast 256 295 7,900 -1,475 Descending Houston Center
Mon 04:05:40 PM 29.5733 -95.6208 131° Southeast 223 257 6,500 -1,452 Descending Houston Center
Mon 04:05:52 PM 29.5708 -95.6158 120° Southeast 223 257 6,400 -1,200 Descending Houston Center
Mon 04:06:40 PM 29.5447 -95.5619 119° Southeast 202 232 5,300 -1,065 Descending Houston Center
Mon 04:06:54 PM 29.5450 -95.5575 86° East 213 245 5,300 -1,433 Level Houston Center
Mon 04:07:47 PM 29.5364 -95.4931 99° East 204 235 3,700 -1,475 Descending Houston Center
Mon 04:07:55 PM 29.5364 -95.4950 270° West 201 231 3,800 -1,091 Climbing Houston Center
Mon 04:08:42 PM 29.5331 -95.4311 93° East 208 239 2,700 -1,452 Descending Houston Center
Mon 04:08:57 PM 29.5342 -95.4153 85° East 207 238 2,300 -627 Descending Houston Center
Mon 04:09:49 PM 29.5592 -95.3728 56° Northeast 172 198 2,000 -290 Descending Houston Center
Mon 04:09:59 PM 29.5631 -95.3681 47° Northeast 194 223 2,000 -358 Level Houston Center
Mon 04:10:56 PM 29.5878 -95.3428 42° Northeast 108 124 1,600 -387 Descending Houston Center
Mon 04:11:01 PM 29.5883 -95.3406 74° East 155 178 1,600 -571 Level Houston Center
Mon 04:11:38 PM 29.6031 -95.3267 39° Northeast 110 127 1,200 -590 Descending Houston Center
Mon 04:12:02 PM 29.6103 -95.3158 53° Northeast 128 147 1,000 -684 Descending Houston Center
Mon 04:12:57 PM 29.6336 -95.2917 42° Northeast 117 135 300 -677 Descending Houston Center
Mon 04:13:04 PM 29.6336 -95.2903 90° East 119 137 300 -174 Level Houston Center
Mon 04:14:06 PM 29.6567 -95.2658 43° Northeast 118 136 100 -194 Descending Houston Center

Login

Don't have an account? Register now (free) for customized features, flight alerts, and more!